This is the latest recevied weather packets stored in our database for station/object OH6LSL. If no packets are shown the sender has not sent any weather packets the latest 10 day(s).
| Time | Temp. | Humidity | Pressure | Rain* | Wind** | Luminosity | Snow |
|---|---|---|---|---|---|---|---|
| 1777469078 | 7.22° C | 42% | 1021 hPa | 0 mm | - | 278 W/m² | - |
| 1777467277 | 6.67° C | 37% | 1021.2 hPa | 0 mm | - | 195 W/m² | - |
| 1777466083 | 6.67° C | 36% | 1021.3 hPa | 0 mm | - | 204 W/m² | - |
| 1777465501 | 7.22° C | 35% | 1021.6 hPa | 0 mm | - | 206 W/m² | - |
| 1777464879 | 7.22° C | 33% | 1021.6 hPa | 0 mm | - | 229 W/m² | - |
| 1777461880 | 7.78° C | 31% | 1022 hPa | 0 mm | - | 505 W/m² | - |
| 1777461281 | 7.78° C | 31% | 1022.2 hPa | 0 mm | - | 540 W/m² | - |
| 1777460678 | 8.33° C | 29% | 1022.2 hPa | 0 mm | - | 560 W/m² | - |
| 1777459499 | 7.78° C | 32% | 1022.6 hPa | 0 mm | - | 542 W/m² | - |
| 1777458276 | 7.22° C | 31% | 1022.7 hPa | 0 mm | - | 623 W/m² | - |
| 1777455879 | 5° C | 45% | 1023.3 hPa | 0 mm | - | 669 W/m² | - |
| 1777454104 | 3.89° C | 49% | 1023.4 hPa | 0 mm | - | 656 W/m² | - |
| 1777451087 | 3.33° C | 51% | 1023.7 hPa | 0 mm | - | 378 W/m² | - |
| 1777447504 | 3.33° C | 55% | 1024.1 hPa | 0 mm | - | 472 W/m² | - |
| 1777446889 | 3.33° C | 55% | 1024.1 hPa | 0 mm | - | 480 W/m² | - |
| 1777446288 | 3.33° C | 53% | 1024.1 hPa | 0 mm | - | 55 W/m² | - |
| 1777445088 | 3.33° C | 53% | 1024.2 hPa | 0 mm | - | 58 W/m² | - |
| 1777443889 | 2.78° C | 55% | 1024.2 hPa | 0 mm | - | 48 W/m² | - |
| 1777441492 | 2.78° C | 54% | 1024.2 hPa | 0 mm | - | 60 W/m² | - |
| 1777434875 | 1.67° C | 48% | 1024.1 hPa | 0 mm | - | 32 W/m² | - |
| 1777431890 | 0° C | 48% | 1024.2 hPa | 0 mm | - | 21 W/m² | - |
| 1777431310 | -0.56° C | 49% | 1024.1 hPa | 0 mm | - | 25 W/m² | - |
| 1777428892 | -0.56° C | 54% | 1024.2 hPa | 0 mm | - | 5 W/m² | - |
| 1777427690 | -0.56° C | 55% | 1024.2 hPa | 0 mm | - | 0 W/m² | - |
| 1777427084 | -0.56° C | 56% | 1024.2 hPa | 0 mm | - | 0 W/m² | - |
* Rain latest hour (hover to see other rain measurements)
** Current wind speed in m/s (hover to see current wind gust speed)